Delta Virtual Airport Information Service

Perth Airport

ICAO: YPPH Country: Australia
Latitude: -31.9402 Longitude: 115.967
Latest Arrival : DAL5668351 (YSSY-YPPH) Latest Departure : DAL5668351 (YPPH-WSSS)


WX CaptureLIVE
Data provided by noaa.gov | Fetched at 04:14:32

METAR : YPPH 030930Z 15011KT CAVOK 30/10 Q1015

TAF : YPPH 030800Z 0309/0412 13014KT CAVOK FM031400 12018G28KT CAVOK FM032200 09016G28KT CAVOK FM040200 10014KT CAVOK FM040700 22015KT CAVOK


Runway Data for YPPH
Data provided by openaviationdata.com

Runway ID Mag Var Hdg Length Elevation Surface ILS Freq ILS Id ILS Slope
3 -2 15° 11326 ft 67 ft Asphalt 110.1 IPN 3
6 -2 60° 7098 ft 67 ft Asphalt -- -- --
21 -2 195° 11326 ft 67 ft Asphalt 109.5 IGD 3
24 -2 240° 7098 ft 67 ft Asphalt 109.9 IPH 3

Perth Airport, Australia
Use only for reference purposes



Not for navigational purposes.